createdAt,value
2019-03-28T07:08:08.430Z,20.00
2019-03-28T07:14:28.337Z,18.97
2019-03-28T07:16:57.449Z,17.50
2019-03-28T07:19:47.260Z,18.60
2019-03-28T07:22:16.533Z,17.20
2019-03-28T07:24:55.398Z,17.43
2019-03-28T07:27:24.348Z,17.60
2019-03-28T07:29:53.955Z,17.13
2019-03-28T07:32:23.519Z,17.53
2019-03-28T07:34:52.866Z,16.73
2019-03-28T07:37:28.029Z,17.40
2019-03-28T07:39:57.756Z,16.80
2019-03-28T07:42:28.207Z,16.57
2019-03-28T07:44:58.128Z,16.40
2019-03-28T07:47:27.662Z,16.40
2019-03-28T07:49:56.773Z,16.67
2019-03-28T07:52:25.719Z,15.43
2019-03-28T07:54:55.052Z,15.13
2019-03-28T07:57:24.161Z,13.80
2019-03-28T08:00:03.644Z,14.07
2019-03-28T08:02:26.876Z,14.27
2019-03-28T08:04:56.363Z,15.57
2019-03-28T08:07:28.491Z,16.67
2019-03-28T08:10:26.463Z,15.30
2019-03-28T08:12:58.972Z,15.87
2019-03-28T08:15:30.372Z,15.57
2019-03-28T08:18:02.690Z,17.13
2019-03-28T08:20:36.453Z,15.90
2019-03-28T08:23:05.728Z,15.23
2019-03-28T08:25:35.040Z,14.17
2019-03-28T08:28:05.026Z,15.33
2019-03-28T08:30:35.231Z,15.00
2019-03-28T08:33:04.988Z,15.83
2019-03-28T08:35:34.962Z,15.43
2019-03-28T08:38:04.689Z,12.47
2019-03-28T08:40:34.961Z,13.20
2019-03-28T08:43:04.469Z,14.23
2019-03-28T08:45:34.369Z,12.60
2019-03-28T08:48:04.197Z,12.87
2019-03-28T08:50:33.199Z,11.93
2019-03-28T08:53:03.845Z,10.27
2019-03-28T08:55:32.946Z,10.13
2019-03-28T08:58:02.074Z,11.70
2019-03-28T09:00:35.190Z,10.57
2019-03-28T09:03:01.970Z,8.93
2019-03-28T09:05:31.309Z,10.47
2019-03-28T09:11:05.812Z,11.07
2019-03-28T09:13:39.380Z,11.00
2019-03-28T09:16:10.782Z,13.20
2019-03-28T09:18:42.746Z,13.30
2019-03-28T09:21:15.132Z,14.23
2019-03-28T09:23:44.609Z,14.93
2019-03-28T09:26:17.007Z,13.20
2019-03-28T09:28:46.387Z,13.17
2019-03-28T09:31:20.078Z,13.33
2019-03-28T09:33:55.071Z,14.90
2019-03-28T09:36:29.580Z,14.50
2019-03-28T09:39:01.495Z,11.67
2019-03-28T09:41:40.088Z,10.07
2019-03-28T09:44:18.819Z,10.90
2019-03-28T09:46:54.366Z,11.20
2019-03-28T09:49:25.683Z,11.87
2019-03-28T09:52:02.480Z,11.67
2019-03-28T09:54:31.888Z,12.37
2019-03-28T09:57:03.231Z,13.23
2019-03-28T09:59:32.497Z,11.67
2019-03-28T10:02:02.026Z,11.70
2019-03-28T10:04:31.606Z,10.90
2019-03-28T10:07:05.709Z,10.33
2019-03-28T10:09:42.525Z,10.00
2019-03-28T10:12:12.237Z,10.63
2019-03-28T10:14:44.682Z,9.20
2019-03-28T10:17:13.823Z,10.60
2019-03-28T10:19:43.081Z,9.40
2019-03-28T10:22:13.349Z,8.73
2019-03-28T10:24:47.145Z,9.60
2019-03-28T10:27:19.155Z,9.37
2019-03-28T10:29:48.131Z,8.67
2019-03-28T10:32:17.399Z,7.80
2019-03-28T10:34:46.802Z,8.20
2019-03-28T10:37:31.471Z,7.00
2019-03-28T10:40:08.796Z,6.90
2019-03-28T10:42:38.351Z,6.63
2019-03-28T10:45:25.610Z,6.07
2019-03-28T10:48:00.685Z,6.60
2019-03-28T10:50:40.851Z,6.73
2019-03-28T10:53:03.491Z,6.83
2019-03-28T10:55:32.532Z,7.73
2019-03-28T10:58:01.924Z,5.60
2019-03-28T11:00:36.015Z,5.37
2019-03-28T11:03:05.374Z,5.63
2019-03-28T11:05:40.867Z,4.40
2019-03-28T11:08:18.396Z,5.17
2019-03-28T11:13:24.528Z,6.67
2019-03-28T11:15:54.441Z,7.20
2019-03-28T11:18:24.153Z,5.90
2019-03-28T11:20:53.696Z,5.17
2019-03-28T11:23:22.721Z,5.57
2019-03-28T11:25:52.292Z,5.30
2019-03-28T11:28:27.771Z,5.50
2019-03-28T11:30:57.019Z,5.77
2019-03-28T11:33:29.270Z,6.67
2019-03-28T11:35:59.844Z,5.60
2019-03-28T11:38:37.753Z,5.20
2019-03-28T11:41:06.925Z,5.80
2019-03-28T11:43:45.597Z,5.37
2019-03-28T11:46:14.762Z,5.37
2019-03-28T11:48:43.748Z,6.07
2019-03-28T11:51:13.049Z,6.53
2019-03-28T11:53:42.505Z,7.30
2019-03-28T11:58:48.195Z,4.90
2019-03-28T12:01:19.177Z,5.60
2019-03-28T12:03:51.752Z,5.90
2019-03-28T12:06:27.428Z,6.03
2019-03-28T12:09:05.767Z,6.90
2019-03-28T12:11:36.511Z,5.43
2019-03-28T12:14:42.132Z,6.80
2019-03-28T12:17:19.684Z,7.80
2019-03-28T12:19:44.343Z,6.97
2019-03-28T12:22:13.576Z,6.80
2019-03-28T12:24:43.346Z,8.90
2019-03-28T12:27:12.467Z,6.67
2019-03-28T12:29:41.615Z,6.10
2019-03-28T12:32:14.203Z,6.73
2019-03-28T12:34:41.840Z,6.30
2019-03-28T12:37:11.072Z,5.93
2019-03-28T12:39:40.412Z,5.57
2019-03-28T12:42:09.471Z,5.63
2019-03-28T12:44:56.400Z,5.20
2019-03-28T12:47:16.152Z,5.97
2019-03-28T12:49:45.126Z,7.63
2019-03-28T12:52:14.115Z,6.50
2019-03-28T12:54:46.745Z,6.00
2019-03-28T12:57:16.164Z,6.60
2019-03-28T12:59:45.336Z,7.53
2019-03-28T13:02:28.379Z,7.07
2019-03-28T13:04:47.375Z,7.27
2019-03-28T13:07:16.491Z,7.67
2019-03-28T13:09:45.452Z,7.47
2019-03-28T13:12:14.581Z,6.93
2019-03-28T13:14:43.752Z,7.40
2019-03-28T13:17:12.756Z,6.40
2019-03-28T13:19:42.190Z,6.70
2019-03-28T13:22:11.129Z,6.20
2019-03-28T13:24:40.157Z,6.13
2019-03-28T13:27:09.104Z,6.30
2019-03-28T13:29:38.007Z,5.90
2019-03-28T13:32:06.784Z,5.97
2019-03-28T13:34:38.681Z,6.30
2019-03-28T13:37:07.390Z,6.93
2019-03-28T13:39:36.281Z,4.73
2019-03-28T13:42:05.167Z,5.17
2019-03-28T13:44:34.122Z,5.30
2019-03-28T13:47:03.136Z,5.97
2019-03-28T13:49:34.370Z,5.13
2019-03-28T13:52:03.405Z,5.30
2019-03-28T13:54:32.309Z,6.10
2019-03-28T13:57:01.175Z,5.27
2019-03-28T13:59:30.016Z,4.67
2019-03-28T14:01:59.181Z,5.03
2019-03-28T14:04:31.091Z,5.00
2019-03-28T14:07:00.437Z,4.83
2019-03-28T14:09:29.831Z,5.43
2019-03-28T14:11:58.967Z,5.33
2019-03-28T14:14:27.964Z,5.80
2019-03-28T14:16:56.775Z,5.93
2019-03-28T14:19:25.790Z,5.73
2019-03-28T14:21:54.597Z,6.10
2019-03-28T14:24:24.051Z,5.70
2019-03-28T14:26:54.335Z,6.20
2019-03-28T14:29:23.183Z,6.00
2019-03-28T14:32:05.853Z,5.40
2019-03-28T14:34:34.762Z,6.33
2019-03-28T14:37:03.930Z,6.30
2019-03-28T14:39:33.257Z,6.03
2019-03-28T14:42:02.171Z,5.90
2019-03-28T14:44:31.153Z,6.80
2019-03-28T14:47:04.874Z,6.30
2019-03-28T14:49:40.690Z,6.60
2019-03-28T14:52:12.960Z,6.50
2019-03-28T14:54:47.876Z,7.77
2019-03-28T14:57:19.074Z,6.53
2019-03-28T15:00:09.898Z,7.40
2019-03-28T15:02:42.454Z,6.90
2019-03-28T15:05:22.699Z,7.57
2019-03-28T15:07:56.114Z,7.43
2019-03-28T15:10:27.698Z,7.27
2019-03-28T15:12:58.372Z,7.00
2019-03-28T15:15:27.855Z,8.17
2019-03-28T15:18:02.487Z,7.00
2019-03-28T15:20:31.524Z,7.53
2019-03-28T15:23:00.891Z,8.33
2019-03-28T15:25:30.181Z,7.60
2019-03-28T15:28:04.243Z,7.23
2019-03-28T15:30:33.864Z,7.10
2019-03-28T15:33:04.305Z,6.37
2019-03-28T15:35:43.395Z,6.80
2019-03-28T15:38:12.301Z,6.60
2019-03-28T15:41:21.290Z,6.27
2019-03-28T15:44:09.090Z,5.93
2019-03-28T15:46:42.589Z,6.20
2019-03-28T15:49:17.346Z,6.43
2019-03-28T15:52:15.055Z,6.23
2019-03-28T15:54:44.543Z,7.20
2019-03-28T15:57:13.922Z,6.33
2019-03-28T15:59:43.172Z,6.93
2019-03-28T16:02:12.424Z,7.70
2019-03-28T16:04:41.364Z,7.17
2019-03-28T16:07:12.003Z,6.87
2019-03-28T16:09:40.960Z,7.37
2019-03-28T16:12:10.068Z,7.37
2019-03-28T16:14:39.325Z,6.67
2019-03-28T16:17:08.448Z,7.40
2019-03-28T16:19:37.515Z,7.80
2019-03-28T16:22:06.731Z,8.40
2019-03-28T16:24:35.823Z,8.27
2019-03-28T16:27:04.874Z,8.80
2019-03-28T16:29:34.087Z,8.83
2019-03-28T16:32:03.340Z,7.53
2019-03-28T16:34:32.263Z,7.93
2019-03-28T16:37:01.788Z,8.40
2019-03-28T16:39:31.001Z,8.70
2019-03-28T16:42:00.047Z,7.73
2019-03-28T16:44:28.917Z,7.20
2019-03-28T16:46:57.910Z,7.43
2019-03-28T16:49:27.073Z,6.60
2019-03-28T16:51:55.937Z,8.23
2019-03-28T16:54:24.912Z,9.00
2019-03-28T16:56:54.161Z,9.07
2019-03-28T16:59:25.191Z,8.63
2019-03-28T17:01:54.436Z,8.47
2019-03-28T17:04:30.102Z,8.47
2019-03-28T17:07:02.054Z,7.47
2019-03-28T17:09:31.452Z,7.50
2019-03-28T17:12:03.661Z,7.77
2019-03-28T17:14:40.045Z,7.40
2019-03-28T17:17:06.924Z,7.80
2019-03-28T17:19:36.922Z,8.13
2019-03-28T17:22:35.732Z,9.90
2019-03-28T17:25:03.540Z,10.10
2019-03-28T17:27:36.176Z,9.80
2019-03-28T17:30:11.939Z,9.73
2019-03-28T17:32:50.303Z,9.60
2019-03-28T17:35:19.883Z,11.07
2019-03-28T17:37:52.078Z,10.97
2019-03-28T17:40:28.828Z,11.63
2019-03-28T17:43:00.795Z,11.13
2019-03-28T17:46:01.354Z,11.17
2019-03-28T17:48:33.288Z,12.33
2019-03-28T17:51:06.729Z,11.23
2019-03-28T17:53:36.196Z,12.10
2019-03-28T17:56:05.294Z,11.97
2019-03-28T17:58:34.745Z,12.33
2019-03-28T18:01:07.239Z,12.17
2019-03-28T18:03:47.723Z,13.20
2019-03-28T18:06:22.295Z,13.10
2019-03-28T18:08:51.678Z,12.67
2019-03-28T18:11:21.827Z,12.37
2019-03-28T18:13:55.024Z,13.60
2019-03-28T18:16:34.414Z,13.17
2019-03-28T18:22:22.521Z,13.90
2019-03-28T18:25:12.683Z,15.67
2019-03-28T18:27:56.954Z,16.10
2019-03-28T18:30:31.000Z,15.70
2019-03-28T18:33:22.353Z,16.33
2019-03-28T18:36:47.301Z,15.90
2019-03-28T18:47:41.697Z,17.13
2019-03-28T18:48:37.742Z,18.70
2019-03-28T18:54:58.719Z,16.47
2019-03-28T18:57:30.124Z,16.87
2019-03-28T18:59:59.586Z,17.70
2019-03-28T19:02:35.391Z,18.07
2019-03-28T19:05:18.967Z,17.37
2019-03-28T19:07:38.727Z,17.97
2019-03-28T19:10:08.177Z,18.43
2019-03-28T19:12:40.574Z,19.97
2019-03-28T19:15:14.183Z,20.17
2019-03-28T19:17:43.476Z,19.53
2019-03-28T19:20:12.808Z,19.10
2019-03-28T19:22:54.395Z,18.97
2019-03-28T19:25:23.568Z,18.70
2019-03-28T19:27:52.599Z,20.10
2019-03-28T19:30:29.835Z,19.63
2019-03-28T19:32:59.044Z,18.77
2019-03-28T19:35:33.283Z,21.10
2019-03-28T19:38:02.131Z,19.73
2019-03-28T19:40:31.391Z,20.20
2019-03-28T19:43:00.444Z,20.43
2019-03-28T19:45:36.098Z,19.50
2019-03-28T19:48:15.125Z,20.77
2019-03-28T19:50:44.625Z,20.67
2019-03-28T19:53:15.610Z,20.33
2019-03-28T19:55:48.941Z,20.10
2019-03-28T19:58:23.446Z,20.07
2019-03-28T20:00:56.228Z,21.37
2019-03-28T20:03:31.027Z,19.87
2019-03-28T20:06:04.820Z,20.87
2019-03-28T20:08:34.061Z,20.13
2019-03-28T20:11:06.691Z,20.47
2019-03-28T20:13:35.987Z,21.90
2019-03-28T20:16:09.124Z,20.93
2019-03-28T20:18:42.848Z,20.83
2019-03-28T20:21:10.555Z,20.37
2019-03-28T20:23:56.784Z,22.57
2019-03-28T20:26:25.608Z,21.50
2019-03-28T20:29:20.751Z,21.57
2019-03-28T20:31:50.183Z,21.63
2019-03-28T20:34:25.253Z,20.57
2019-03-28T20:36:54.509Z,21.93
2019-03-28T20:39:34.058Z,22.63
2019-03-28T20:42:10.871Z,23.27
2019-03-28T20:44:56.955Z,22.47
2019-03-28T20:48:04.343Z,22.73
2019-03-28T20:50:52.924Z,23.90
2019-03-28T20:53:38.815Z,23.10
2019-03-28T20:56:14.406Z,22.93
2019-03-28T20:58:44.221Z,23.43
2019-03-28T21:01:14.959Z,23.83
2019-03-28T21:03:50.047Z,23.07
2019-03-28T21:06:26.765Z,22.43
2019-03-28T21:09:14.849Z,23.57
2019-03-28T21:11:44.619Z,24.43
2019-03-28T21:14:24.035Z,22.97
2019-03-28T21:16:58.146Z,24.00
2019-03-28T21:19:39.374Z,24.97
2019-03-28T21:22:08.577Z,24.70
2019-03-28T21:25:08.903Z,24.57
2019-03-28T21:27:37.861Z,24.40
2019-03-28T21:30:09.968Z,25.33
2019-03-28T21:32:54.412Z,25.40
2019-03-28T21:35:13.008Z,23.93
2019-03-28T21:37:42.197Z,24.53
2019-03-28T21:40:11.161Z,25.17
2019-03-28T21:42:40.096Z,26.17
2019-03-28T21:45:09.394Z,24.10
2019-03-28T21:47:41.589Z,24.67
2019-03-28T21:50:10.709Z,24.57
2019-03-28T21:52:40.289Z,26.30
2019-03-28T21:55:13.926Z,25.53
2019-03-28T21:57:58.635Z,25.30
2019-03-28T22:00:27.562Z,25.37
2019-03-28T22:03:02.703Z,26.57
2019-03-28T22:05:31.714Z,25.47
2019-03-28T22:08:00.669Z,26.83
2019-03-28T22:10:29.799Z,25.60
2019-03-28T22:12:58.692Z,25.13
2019-03-28T22:15:27.613Z,27.30
2019-03-28T22:17:56.924Z,25.40
2019-03-28T22:20:25.779Z,28.03
2019-03-28T22:22:55.154Z,25.73
2019-03-28T22:25:24.408Z,26.23
2019-03-28T22:27:53.353Z,26.00
2019-03-28T22:30:22.377Z,25.77
2019-03-28T22:32:51.657Z,26.50
2019-03-28T22:35:20.672Z,25.70
2019-03-28T22:37:49.472Z,27.57
2019-03-28T22:40:18.565Z,28.13
2019-03-28T22:42:47.515Z,28.77
2019-03-28T22:45:16.310Z,27.70
2019-03-28T22:47:48.425Z,26.30
2019-03-28T22:50:17.365Z,27.57
2019-03-28T22:52:46.175Z,26.20
2019-03-28T22:55:15.240Z,26.67
2019-03-28T22:57:44.155Z,26.60
2019-03-28T23:00:13.144Z,26.33
2019-03-28T23:02:42.195Z,28.23
2019-03-28T23:05:11.133Z,27.53
2019-03-28T23:07:40.900Z,27.80
2019-03-28T23:10:10.068Z,28.60
2019-03-28T23:12:39.145Z,28.00
2019-03-28T23:15:08.305Z,27.27
2019-03-28T23:17:37.255Z,26.90
2019-03-28T23:20:06.729Z,27.30
2019-03-28T23:22:35.847Z,27.90
2019-03-28T23:25:04.720Z,28.23
2019-03-28T23:27:33.653Z,26.30
2019-03-28T23:30:03.081Z,26.67
2019-03-28T23:32:32.255Z,27.10
2019-03-28T23:35:01.373Z,29.23
2019-03-28T23:37:30.453Z,26.80
2019-03-28T23:40:02.184Z,27.33
2019-03-28T23:42:31.175Z,27.87
2019-03-28T23:44:59.966Z,27.43
2019-03-28T23:47:30.075Z,27.50
2019-03-28T23:49:59.221Z,26.37
2019-03-28T23:52:27.909Z,27.93
2019-03-28T23:54:56.824Z,27.27
2019-03-28T23:57:26.048Z,29.20
2019-03-28T23:59:55.177Z,26.57
